createdAt,value
2022-09-30T00:01:01.208Z,59.01
2022-09-30T00:03:28.877Z,59.03
2022-09-30T00:05:58.384Z,58.79
2022-09-30T00:08:24.951Z,59.32
2022-09-30T00:11:04.642Z,59.06
2022-09-30T00:13:31.849Z,59.05
2022-09-30T00:15:58.351Z,58.87
2022-09-30T00:18:24.704Z,59.25
2022-09-30T00:20:51.021Z,59.05
2022-09-30T00:23:17.338Z,58.88
2022-09-30T00:25:43.645Z,59.14
2022-09-30T00:28:10.021Z,58.85
2022-09-30T00:30:36.326Z,59.50
2022-09-30T00:33:02.659Z,59.60
2022-09-30T00:35:29.001Z,58.92
2022-09-30T00:37:55.332Z,59.26
2022-09-30T00:40:21.642Z,58.94
2022-09-30T00:42:47.969Z,58.94
2022-09-30T00:45:14.354Z,58.71
2022-09-30T00:48:04.852Z,59.06
2022-09-30T00:50:33.067Z,58.78
2022-09-30T00:53:10.399Z,58.97
2022-09-30T00:55:36.730Z,58.81
2022-09-30T00:58:03.170Z,59.29
2022-09-30T01:00:29.679Z,59.06
2022-09-30T01:02:56.066Z,59.09
2022-09-30T01:05:23.038Z,59.30
2022-09-30T01:07:49.497Z,59.10
2022-09-30T01:10:15.922Z,59.09
2022-09-30T01:12:42.269Z,58.89
2022-09-30T01:15:09.568Z,59.01
2022-09-30T01:17:43.014Z,58.92
2022-09-30T01:20:27.036Z,59.17
2022-09-30T01:23:02.897Z,59.21
2022-09-30T01:25:34.812Z,58.73
2022-09-30T01:28:01.061Z,58.86
2022-09-30T01:30:45.757Z,58.97
2022-09-30T01:33:17.734Z,58.62
2022-09-30T01:35:51.393Z,59.01
2022-09-30T01:38:24.993Z,59.01
2022-09-30T01:40:58.798Z,59.09
2022-09-30T01:43:32.153Z,58.98
2022-09-30T01:46:15.023Z,58.83
2022-09-30T01:48:44.326Z,59.04
2022-09-30T01:51:18.085Z,58.71
2022-09-30T01:53:49.667Z,58.89
2022-09-30T01:56:15.901Z,58.78
2022-09-30T01:58:43.273Z,58.86
2022-09-30T02:01:11.742Z,58.90
2022-09-30T02:03:40.042Z,59.04
2022-09-30T02:06:10.459Z,58.91
2022-09-30T02:08:42.925Z,58.51
2022-09-30T02:11:10.798Z,58.76
2022-09-30T02:13:39.542Z,58.62
2022-09-30T02:16:12.800Z,58.71
2022-09-30T02:18:41.469Z,58.66
2022-09-30T02:21:07.802Z,58.61
2022-09-30T02:23:35.173Z,58.66
2022-09-30T02:26:21.675Z,58.53
2022-09-30T02:28:49.604Z,58.80
2022-09-30T02:31:16.029Z,58.67
2022-09-30T02:33:43.572Z,58.75
2022-09-30T02:36:11.062Z,58.28
2022-09-30T02:38:39.211Z,58.52
2022-09-30T02:41:10.378Z,58.52
2022-09-30T02:43:36.723Z,58.03
2022-09-30T02:46:10.890Z,58.13
2022-09-30T02:48:47.828Z,59.06
2022-09-30T02:51:18.697Z,58.65
2022-09-30T02:54:01.698Z,59.26
2022-09-30T02:56:40.066Z,59.27
2022-09-30T02:59:06.390Z,59.60
2022-09-30T03:01:32.764Z,59.26
2022-09-30T03:03:59.743Z,59.43
2022-09-30T03:06:26.046Z,59.15
2022-09-30T03:08:53.000Z,59.50
2022-09-30T03:11:22.714Z,59.13
2022-09-30T03:13:59.902Z,59.36
2022-09-30T03:16:30.707Z,59.14
2022-09-30T03:19:04.530Z,59.25
2022-09-30T03:21:49.433Z,59.04
2022-09-30T03:24:23.223Z,59.13
2022-09-30T03:26:58.490Z,59.44
2022-09-30T03:29:43.452Z,59.34
2022-09-30T03:32:24.446Z,59.29
2022-09-30T03:34:57.715Z,58.95
2022-09-30T03:37:27.136Z,59.33
2022-09-30T03:40:01.232Z,59.17
2022-09-30T03:42:29.171Z,59.00
2022-09-30T03:45:09.854Z,59.18
2022-09-30T03:47:38.806Z,58.94
2022-09-30T03:50:06.576Z,59.29
2022-09-30T03:52:32.896Z,59.16
2022-09-30T03:54:59.637Z,59.07
2022-09-30T03:57:28.596Z,56.98
2022-09-30T03:59:55.309Z,56.31
2022-09-30T04:02:21.662Z,57.07
2022-09-30T04:04:48.002Z,58.11
2022-09-30T04:07:14.340Z,57.57
2022-09-30T04:09:40.839Z,57.98
2022-09-30T04:12:07.305Z,58.25
2022-09-30T04:14:34.320Z,58.40
2022-09-30T04:17:00.651Z,58.27
2022-09-30T04:19:26.952Z,58.33
2022-09-30T04:21:53.515Z,58.46
2022-09-30T04:24:20.413Z,58.42
2022-09-30T04:26:46.823Z,58.86
2022-09-30T04:29:13.145Z,58.84
2022-09-30T04:31:39.539Z,58.88
2022-09-30T04:34:06.219Z,58.75
2022-09-30T04:36:32.532Z,58.62
2022-09-30T04:38:59.864Z,59.14
2022-09-30T04:41:26.748Z,59.04
2022-09-30T04:43:53.064Z,58.63
2022-09-30T04:46:19.928Z,58.77
2022-09-30T04:48:46.309Z,59.06
2022-09-30T04:51:13.217Z,58.86
2022-09-30T04:53:39.897Z,58.99
2022-09-30T04:56:06.221Z,59.01
2022-09-30T04:58:36.801Z,58.68
2022-09-30T05:01:03.814Z,59.09
2022-09-30T05:03:30.151Z,58.87
2022-09-30T05:05:56.453Z,58.62
2022-09-30T05:08:23.027Z,58.53
2022-09-30T05:10:57.216Z,58.41
2022-09-30T05:13:24.248Z,58.13
2022-09-30T05:15:50.621Z,58.35
2022-09-30T05:18:16.973Z,59.09
2022-09-30T05:20:43.597Z,54.19
2022-09-30T05:23:09.910Z,55.55
2022-09-30T05:25:36.230Z,56.80
2022-09-30T05:28:02.550Z,56.40
2022-09-30T05:30:28.853Z,56.18
2022-09-30T05:32:55.158Z,55.99
2022-09-30T05:35:21.463Z,55.36
2022-09-30T05:37:47.797Z,55.13
2022-09-30T05:40:14.121Z,54.25
2022-09-30T05:42:40.440Z,54.33
2022-09-30T05:45:06.921Z,54.08
2022-09-30T05:47:33.457Z,54.87
2022-09-30T05:50:19.767Z,56.72
2022-09-30T05:52:46.238Z,54.87
2022-09-30T05:55:12.555Z,52.60
2022-09-30T05:57:39.302Z,52.88
2022-09-30T06:00:06.818Z,52.29
2022-09-30T06:02:38.534Z,51.39
2022-09-30T06:05:05.354Z,50.91
2022-09-30T06:07:32.789Z,50.64
2022-09-30T06:09:59.110Z,49.66
2022-09-30T06:12:27.354Z,49.45
2022-09-30T06:14:53.663Z,49.76
2022-09-30T06:17:19.978Z,50.22
2022-09-30T06:19:46.301Z,46.67
2022-09-30T06:22:12.638Z,45.09
2022-09-30T06:24:38.956Z,44.43
2022-09-30T06:27:05.854Z,43.60
2022-09-30T06:29:32.170Z,42.84
2022-09-30T06:31:58.589Z,43.29
2022-09-30T06:34:24.975Z,45.27
2022-09-30T06:36:51.318Z,45.96
2022-09-30T06:39:17.632Z,47.11
2022-09-30T06:41:44.117Z,46.89
2022-09-30T06:44:13.429Z,45.80
2022-09-30T06:46:51.528Z,45.94
2022-09-30T06:49:19.765Z,46.50
2022-09-30T06:51:46.091Z,47.72
2022-09-30T06:54:13.519Z,48.97
2022-09-30T06:56:39.836Z,49.51
2022-09-30T06:59:06.942Z,50.55
2022-09-30T07:01:33.273Z,50.39
2022-09-30T07:03:59.614Z,50.74
2022-09-30T07:06:29.125Z,51.37
2022-09-30T07:08:56.792Z,51.24
2022-09-30T07:11:23.944Z,51.96
2022-09-30T07:13:50.253Z,52.30
2022-09-30T07:16:17.435Z,51.76
2022-09-30T07:18:44.902Z,52.41
2022-09-30T07:21:13.446Z,52.74
2022-09-30T07:23:45.565Z,53.04
2022-09-30T07:26:11.885Z,52.76
2022-09-30T07:28:39.406Z,52.05
2022-09-30T07:31:31.551Z,52.55
2022-09-30T07:33:56.788Z,53.04
2022-09-30T07:36:32.116Z,53.07
2022-09-30T07:39:00.253Z,52.49
2022-09-30T07:41:29.970Z,52.78
2022-09-30T07:43:56.608Z,52.64
2022-09-30T07:46:27.520Z,51.87
2022-09-30T07:48:54.857Z,51.49
2022-09-30T07:51:22.705Z,51.35
2022-09-30T07:53:49.852Z,51.66
2022-09-30T07:56:16.263Z,51.12
2022-09-30T07:58:42.701Z,50.93
2022-09-30T08:01:09.086Z,51.34
2022-09-30T08:03:39.230Z,51.16
2022-09-30T08:06:12.575Z,50.80
2022-09-30T08:08:38.919Z,50.46
2022-09-30T08:11:06.827Z,50.10
2022-09-30T08:13:33.141Z,50.09
2022-09-30T08:15:59.484Z,49.36
2022-09-30T08:18:25.861Z,49.37
2022-09-30T08:20:52.172Z,49.79
2022-09-30T08:23:18.509Z,50.11
2022-09-30T08:25:44.927Z,51.54
2022-09-30T08:28:11.329Z,53.08
2022-09-30T08:30:37.732Z,53.57
2022-09-30T08:33:04.121Z,53.93
2022-09-30T08:35:30.435Z,53.65
2022-09-30T08:37:56.741Z,54.12
2022-09-30T08:40:30.743Z,54.44
2022-09-30T08:43:03.755Z,54.25
2022-09-30T08:45:39.076Z,54.51
2022-09-30T08:50:48.870Z,53.69
2022-09-30T08:53:23.951Z,53.68
2022-09-30T08:55:50.274Z,54.51
2022-09-30T08:58:20.106Z,54.41
2022-09-30T09:00:46.730Z,53.86
2022-09-30T09:03:13.080Z,54.44
2022-09-30T09:05:51.695Z,54.67
2022-09-30T09:08:21.912Z,54.51
2022-09-30T09:10:51.094Z,54.29
2022-09-30T09:13:26.462Z,54.09
2022-09-30T09:15:57.365Z,53.15
2022-09-30T09:18:27.721Z,53.86
2022-09-30T09:20:55.255Z,53.79
2022-09-30T09:23:21.979Z,54.66
2022-09-30T09:25:50.851Z,54.69
2022-09-30T09:28:22.799Z,54.52
2022-09-30T09:30:51.408Z,54.65
2022-09-30T09:33:25.741Z,54.80
2022-09-30T09:36:10.778Z,54.83
2022-09-30T09:38:44.950Z,54.71
2022-09-30T09:41:14.283Z,54.80
2022-09-30T09:43:51.047Z,54.79
2022-09-30T09:46:20.967Z,54.48
2022-09-30T09:48:47.347Z,54.29
2022-09-30T09:51:16.301Z,54.66
2022-09-30T09:53:49.881Z,54.22
2022-09-30T09:56:37.849Z,54.54
2022-09-30T09:59:19.410Z,54.35
2022-09-30T10:01:50.464Z,54.54
2022-09-30T10:04:23.611Z,54.99
2022-09-30T10:06:54.024Z,55.60
2022-09-30T10:09:28.058Z,55.22
2022-09-30T10:12:06.700Z,54.48
2022-09-30T10:14:36.651Z,54.54
2022-09-30T10:17:03.731Z,54.71
2022-09-30T10:19:30.685Z,54.73
2022-09-30T10:22:08.878Z,54.41
2022-09-30T10:24:38.323Z,54.35
2022-09-30T10:27:04.771Z,54.41
2022-09-30T10:29:31.994Z,54.58
2022-09-30T10:32:02.387Z,55.17
2022-09-30T10:34:28.704Z,54.79
2022-09-30T10:36:55.352Z,54.91
2022-09-30T10:39:24.943Z,54.59
2022-09-30T10:41:51.929Z,54.67
2022-09-30T10:44:21.808Z,54.91
2022-09-30T10:46:48.603Z,54.92
2022-09-30T10:49:28.259Z,54.39
2022-09-30T10:51:55.265Z,53.54
2022-09-30T10:54:33.185Z,53.54
2022-09-30T10:57:01.042Z,53.53
2022-09-30T10:59:30.067Z,53.29
2022-09-30T11:02:01.971Z,53.42
2022-09-30T11:04:33.970Z,53.83
2022-09-30T11:07:02.052Z,53.86
2022-09-30T11:09:44.540Z,53.87
2022-09-30T11:12:11.032Z,53.15
2022-09-30T11:14:39.597Z,51.32
2022-09-30T11:17:10.873Z,52.36
2022-09-30T11:19:43.482Z,52.10
2022-09-30T11:22:26.369Z,52.49
2022-09-30T11:24:52.710Z,52.75
2022-09-30T11:27:22.308Z,53.30
2022-09-30T11:29:51.530Z,53.48
2022-09-30T11:32:23.876Z,53.50
2022-09-30T11:35:02.974Z,53.28
2022-09-30T11:37:50.202Z,53.33
2022-09-30T11:40:24.716Z,53.28
2022-09-30T11:42:55.384Z,53.19
2022-09-30T11:45:21.787Z,53.43
2022-09-30T11:47:48.285Z,53.68
2022-09-30T11:50:25.994Z,53.90
2022-09-30T11:52:55.531Z,54.04
2022-09-30T11:55:37.182Z,54.13
2022-09-30T11:58:22.388Z,53.81
2022-09-30T12:00:52.504Z,53.92
2022-09-30T12:03:30.158Z,53.76
2022-09-30T12:05:57.457Z,52.95
2022-09-30T12:08:36.491Z,52.98
2022-09-30T12:11:13.667Z,52.84
2022-09-30T12:13:41.262Z,52.97
2022-09-30T12:16:09.991Z,52.65
2022-09-30T12:18:37.628Z,53.09
2022-09-30T12:21:07.446Z,52.37
2022-09-30T12:23:35.668Z,52.08
2022-09-30T12:26:02.265Z,53.30
2022-09-30T12:28:49.372Z,52.99
2022-09-30T12:31:27.897Z,53.52
2022-09-30T12:34:09.581Z,53.67
2022-09-30T12:36:42.286Z,53.86
2022-09-30T12:39:23.063Z,53.73
2022-09-30T12:41:52.977Z,53.88
2022-09-30T12:44:31.167Z,53.62
2022-09-30T12:47:16.331Z,53.79
2022-09-30T12:49:42.638Z,53.87
2022-09-30T12:52:16.133Z,53.81
2022-09-30T12:55:02.785Z,53.93
2022-09-30T12:57:32.611Z,53.87
2022-09-30T13:00:03.319Z,52.70
2022-09-30T13:02:36.522Z,53.27
2022-09-30T13:05:28.109Z,52.92
2022-09-30T13:08:03.629Z,52.91
2022-09-30T13:10:33.050Z,52.64
2022-09-30T13:13:19.758Z,52.15
2022-09-30T13:15:46.260Z,52.44
2022-09-30T13:18:21.478Z,51.97
2022-09-30T13:20:57.668Z,50.86
2022-09-30T13:23:43.195Z,50.52
2022-09-30T13:26:28.755Z,47.82
2022-09-30T13:29:16.115Z,49.39
2022-09-30T13:31:45.397Z,49.52
2022-09-30T13:34:12.499Z,50.08
2022-09-30T13:36:39.583Z,50.41
2022-09-30T13:39:16.508Z,51.05
2022-09-30T13:41:42.817Z,51.37
2022-09-30T13:44:10.349Z,51.08
2022-09-30T13:46:39.886Z,51.07
2022-09-30T13:49:10.724Z,51.26
2022-09-30T13:51:37.976Z,51.68
2022-09-30T13:54:08.504Z,51.45
2022-09-30T13:56:35.182Z,51.64
2022-09-30T13:59:09.834Z,51.29
2022-09-30T14:01:36.225Z,51.36
2022-09-30T14:04:17.058Z,52.01
2022-09-30T14:06:45.322Z,52.27
2022-09-30T14:09:18.849Z,52.30
2022-09-30T14:11:49.704Z,52.37
2022-09-30T14:14:21.959Z,52.31
2022-09-30T14:16:52.534Z,51.87
2022-09-30T14:19:35.821Z,52.00
2022-09-30T14:22:03.675Z,52.04
2022-09-30T14:24:35.103Z,52.59
2022-09-30T14:27:22.511Z,52.11
2022-09-30T14:30:02.245Z,52.09
2022-09-30T14:32:29.032Z,52.50
2022-09-30T14:34:55.378Z,52.10
2022-09-30T14:37:24.464Z,52.41
2022-09-30T14:39:50.790Z,52.27
2022-09-30T14:42:24.475Z,52.27
2022-09-30T14:44:50.810Z,52.53
2022-09-30T14:47:17.169Z,52.56
2022-09-30T14:49:43.981Z,52.46
2022-09-30T14:52:28.975Z,52.45
2022-09-30T14:54:55.319Z,52.79
2022-09-30T14:57:23.646Z,52.50
2022-09-30T14:59:49.967Z,52.34
2022-09-30T15:02:18.354Z,52.63
2022-09-30T15:04:48.501Z,52.64
2022-09-30T15:07:14.973Z,52.68
2022-09-30T15:09:43.452Z,53.22
2022-09-30T15:12:14.014Z,52.95
2022-09-30T15:14:50.061Z,52.71
2022-09-30T15:17:19.734Z,52.42
2022-09-30T15:19:46.126Z,52.84
2022-09-30T15:22:13.131Z,53.11
2022-09-30T15:24:40.413Z,53.09
2022-09-30T15:27:13.615Z,53.00
2022-09-30T15:29:53.537Z,52.97
2022-09-30T15:32:21.132Z,52.92
2022-09-30T15:34:47.496Z,53.07
2022-09-30T15:37:20.544Z,53.07
2022-09-30T15:40:05.667Z,53.41
2022-09-30T15:42:35.199Z,53.21
2022-09-30T15:45:04.747Z,53.18
2022-09-30T15:47:31.099Z,52.89
2022-09-30T15:49:57.461Z,53.27
2022-09-30T15:52:30.568Z,53.25
2022-09-30T15:54:57.114Z,53.03
2022-09-30T15:57:40.147Z,53.01
2022-09-30T16:00:08.560Z,53.16
2022-09-30T16:02:34.990Z,53.09
2022-09-30T16:05:05.302Z,52.91
2022-09-30T16:07:31.881Z,53.41
2022-09-30T16:09:59.169Z,53.69
2022-09-30T16:12:32.172Z,53.21
2022-09-30T16:14:59.976Z,53.12
2022-09-30T16:17:33.520Z,53.42
2022-09-30T16:20:00.481Z,53.87
2022-09-30T16:22:42.036Z,53.36
2022-09-30T16:25:28.105Z,53.70
2022-09-30T16:28:13.667Z,53.67
2022-09-30T16:30:46.857Z,54.71
2022-09-30T16:33:13.591Z,46.49
2022-09-30T16:35:41.062Z,45.17
2022-09-30T16:38:07.399Z,44.86
2022-09-30T16:40:35.566Z,45.20
2022-09-30T16:43:07.105Z,45.81
2022-09-30T16:45:34.071Z,45.88
2022-09-30T16:48:01.612Z,47.66
2022-09-30T16:50:48.020Z,47.50
2022-09-30T16:53:14.355Z,48.79
2022-09-30T16:55:40.773Z,49.19
2022-09-30T16:58:09.327Z,49.65
2022-09-30T17:00:35.769Z,47.11
2022-09-30T17:03:02.203Z,45.58
2022-09-30T17:05:28.521Z,44.83
2022-09-30T17:07:58.329Z,44.80
2022-09-30T17:10:25.800Z,44.44
2022-09-30T17:12:52.115Z,44.51
2022-09-30T17:15:18.689Z,44.80
2022-09-30T17:17:45.206Z,44.89
2022-09-30T17:20:11.513Z,44.48
2022-09-30T17:22:37.883Z,44.71
2022-09-30T17:25:04.254Z,45.84
2022-09-30T17:27:30.579Z,45.25
2022-09-30T17:29:56.922Z,45.40
2022-09-30T17:32:23.331Z,45.90
2022-09-30T17:34:50.098Z,45.95
2022-09-30T17:37:16.413Z,46.61
2022-09-30T17:39:42.726Z,47.15
2022-09-30T17:42:31.059Z,47.46
2022-09-30T17:44:57.424Z,47.31
2022-09-30T17:47:23.791Z,47.45
2022-09-30T17:49:50.107Z,49.11
2022-09-30T17:52:18.056Z,49.97
2022-09-30T17:54:46.641Z,49.90
2022-09-30T17:57:16.212Z,49.54
2022-09-30T17:59:46.510Z,48.78
2022-09-30T18:02:15.172Z,48.61
2022-09-30T18:04:41.601Z,49.12
2022-09-30T18:07:10.182Z,49.37
2022-09-30T18:09:37.857Z,50.03
2022-09-30T18:12:04.603Z,49.58
2022-09-30T18:14:36.034Z,48.87
2022-09-30T18:17:02.930Z,48.88
2022-09-30T18:19:29.247Z,49.42
2022-09-30T18:21:55.697Z,49.66
2022-09-30T18:24:41.972Z,49.54
2022-09-30T18:27:08.282Z,49.64
2022-09-30T18:29:34.657Z,49.95
2022-09-30T18:32:01.725Z,50.13
2022-09-30T18:34:28.117Z,50.03
2022-09-30T18:36:54.488Z,50.44
2022-09-30T18:39:21.584Z,50.55
2022-09-30T18:41:48.681Z,50.47
2022-09-30T18:44:15.179Z,50.95
2022-09-30T18:46:42.885Z,50.80
2022-09-30T18:49:10.603Z,50.94
2022-09-30T18:51:36.981Z,51.02
2022-09-30T18:54:05.580Z,50.91
2022-09-30T18:56:32.376Z,51.22
2022-09-30T18:59:00.228Z,51.31
2022-09-30T19:01:27.659Z,50.95
2022-09-30T19:03:54.117Z,51.95
2022-09-30T19:06:20.446Z,51.48
2022-09-30T19:08:46.778Z,51.81
2022-09-30T19:11:17.468Z,52.03
2022-09-30T19:13:44.378Z,52.08
2022-09-30T19:16:11.171Z,52.00
2022-09-30T19:18:39.138Z,52.12
2022-09-30T19:21:10.082Z,52.10
2022-09-30T19:23:36.704Z,52.05
2022-09-30T19:26:03.142Z,51.92
2022-09-30T19:28:31.152Z,51.78
2022-09-30T19:31:00.059Z,51.95
2022-09-30T19:33:27.233Z,51.69
2022-09-30T19:36:14.884Z,51.84
2022-09-30T19:38:42.325Z,52.21
2022-09-30T19:41:08.890Z,52.26
2022-09-30T19:43:35.440Z,52.26
2022-09-30T19:46:02.585Z,52.00
2022-09-30T19:48:29.316Z,52.25
2022-09-30T19:50:58.398Z,52.18
2022-09-30T19:53:30.717Z,52.50
2022-09-30T19:56:04.642Z,52.78
2022-09-30T19:58:34.483Z,53.27
2022-09-30T20:01:01.317Z,52.48
2022-09-30T20:03:29.301Z,52.74
2022-09-30T20:06:05.712Z,52.61
2022-09-30T20:08:32.671Z,52.75
2022-09-30T20:11:03.173Z,52.65
2022-09-30T20:13:29.595Z,52.69
2022-09-30T20:15:58.164Z,53.00
2022-09-30T20:18:24.550Z,53.36
2022-09-30T20:20:50.909Z,53.21
2022-09-30T20:23:17.591Z,53.58
2022-09-30T20:25:43.892Z,53.06
2022-09-30T20:28:10.276Z,53.20
2022-09-30T20:30:45.267Z,53.48
2022-09-30T20:33:12.427Z,53.26
2022-09-30T20:35:38.978Z,53.27
2022-09-30T20:38:06.729Z,53.23
2022-09-30T20:40:33.196Z,53.20
2022-09-30T20:43:01.696Z,52.84
2022-09-30T20:45:28.423Z,52.92
2022-09-30T20:47:55.227Z,52.82
2022-09-30T20:50:35.001Z,52.68
2022-09-30T20:53:04.934Z,52.43
2022-09-30T20:55:33.113Z,52.50
2022-09-30T20:57:59.426Z,52.40
2022-09-30T21:00:25.735Z,52.41
2022-09-30T21:02:52.294Z,52.20
2022-09-30T21:05:18.612Z,52.44
2022-09-30T21:07:45.048Z,52.58
2022-09-30T21:10:11.554Z,52.49
2022-09-30T21:12:38.207Z,52.81
2022-09-30T21:15:04.767Z,52.76
2022-09-30T21:17:31.727Z,52.89
2022-09-30T21:19:58.639Z,52.52
2022-09-30T21:22:24.951Z,51.70
2022-09-30T21:24:51.261Z,51.42
2022-09-30T21:27:17.568Z,52.51
2022-09-30T21:29:43.872Z,52.53
2022-09-30T21:32:10.318Z,52.36
2022-09-30T21:34:36.704Z,53.12
2022-09-30T21:37:03.092Z,52.81
2022-09-30T21:39:29.418Z,52.84
2022-09-30T21:41:55.909Z,53.13
2022-09-30T21:44:22.209Z,53.24
2022-09-30T21:46:50.239Z,53.21
2022-09-30T21:49:17.367Z,53.20
2022-09-30T21:51:43.691Z,50.40
2022-09-30T21:54:11.620Z,49.57
2022-09-30T21:56:38.223Z,48.74
2022-09-30T21:59:04.691Z,48.24
2022-09-30T22:01:31.378Z,48.98
2022-09-30T22:03:57.907Z,46.62
2022-09-30T22:06:24.294Z,43.79
2022-09-30T22:08:50.949Z,42.76
2022-09-30T22:11:18.202Z,42.65
2022-09-30T22:13:45.071Z,42.35
2022-09-30T22:16:11.857Z,42.86
2022-09-30T22:18:38.640Z,43.10
2022-09-30T22:21:05.748Z,43.65
2022-09-30T22:23:32.075Z,44.38
2022-09-30T22:25:58.516Z,45.16
2022-09-30T22:28:24.860Z,45.55
2022-09-30T22:30:51.219Z,46.16
2022-09-30T22:33:36.153Z,46.54
2022-09-30T22:36:21.011Z,47.09
2022-09-30T22:38:48.486Z,47.47
2022-09-30T22:41:16.046Z,47.59
2022-09-30T22:43:42.371Z,47.94
2022-09-30T22:46:08.741Z,48.01
2022-09-30T22:48:35.256Z,48.27
2022-09-30T22:51:01.755Z,48.49
2022-09-30T22:53:28.094Z,48.96
2022-09-30T22:55:54.478Z,48.96
2022-09-30T22:58:20.967Z,49.02
2022-09-30T23:00:57.394Z,49.34
2022-09-30T23:03:25.347Z,49.37
2022-09-30T23:05:52.308Z,49.66
2022-09-30T23:08:18.636Z,49.49
2022-09-30T23:10:45.562Z,49.94
2022-09-30T23:13:13.251Z,49.89
2022-09-30T23:15:39.565Z,50.13
2022-09-30T23:18:05.897Z,50.18
2022-09-30T23:20:32.442Z,50.56
2022-09-30T23:22:58.800Z,50.71
2022-09-30T23:25:25.141Z,50.89
2022-09-30T23:27:51.552Z,50.61
2022-09-30T23:30:17.922Z,50.80
2022-09-30T23:32:44.274Z,51.04
2022-09-30T23:35:10.593Z,51.08
2022-09-30T23:37:36.926Z,51.08
2022-09-30T23:40:03.249Z,51.23
2022-09-30T23:42:31.872Z,51.41
2022-09-30T23:44:58.196Z,51.24
2022-09-30T23:47:24.509Z,51.58
2022-09-30T23:49:50.912Z,51.51
2022-09-30T23:52:17.778Z,51.68
2022-09-30T23:54:44.126Z,51.64
2022-09-30T23:57:10.692Z,51.91
2022-09-30T23:59:37.723Z,51.93
